Time;durP1;ratioP1;P1;durP2;ratioP2;P2;SDS_P1;SDS_P2;PMS_P1;PMS_P2;Temp;Humidity;BMP_temperature;BMP_pressure;BME280_temperature;BME280_humidity;BME280_pressure;Samples;Min_cycle;Max_cycle;Signal;HPM_P1;HPM_P2
2023/03/26 00:02:00;;;;;;;0.60;0.30;;;7.70;99.90;;;;;;5098522;28;20475;-80
2023/03/26 00:04:27;;;;;;;0.50;0.30;;;7.80;99.90;;;;;;5097495;28;20474;-78
2023/03/26 00:06:54;;;;;;;0.40;0.30;;;7.80;99.90;;;;;;5107625;28;20503;-78
2023/03/26 00:09:23;;;;;;;0.83;0.40;;;7.90;99.90;;;;;;5104446;28;20478;-78
2023/03/26 00:11:50;;;;;;;1.43;0.20;;;7.90;99.90;;;;;;5105465;28;21008;-77
2023/03/26 00:14:17;;;;;;;0.50;0.40;;;8.00;99.90;;;;;;5102225;28;21015;-80
2023/03/26 00:16:46;;;;;;;1.93;0.33;;;8.00;99.90;;;;;;5103921;28;20963;-80
2023/03/26 00:19:13;;;;;;;0.47;0.30;;;8.10;99.90;;;;;;5099712;28;20483;-82
2023/03/26 00:21:40;;;;;;;0.60;0.30;;;8.10;99.90;;;;;;5103026;28;20501;-80
2023/03/26 00:24:10;;;;;;;1.90;0.40;;;8.10;99.90;;;;;;5102508;28;20543;-80
2023/03/26 00:26:39;;;;;;;0.73;0.40;;;8.20;99.90;;;;;;5100370;28;20550;-81
2023/03/26 00:29:08;;;;;;;1.23;0.40;;;8.20;99.90;;;;;;5098679;28;20467;-79
2023/03/26 00:31:36;;;;;;;0.60;0.30;;;8.20;99.90;;;;;;5107868;28;20485;-78
2023/03/26 00:34:04;;;;;;;0.80;0.40;;;8.10;99.90;;;;;;5101809;28;20486;-78
2023/03/26 00:36:34;;;;;;;3.37;0.90;;;8.10;99.90;;;;;;5092854;28;20484;-78
2023/03/26 00:39:03;;;;;;;0.60;0.30;;;8.10;99.90;;;;;;5103781;28;21202;-78
2023/03/26 00:41:31;;;;;;;0.70;0.30;;;8.10;99.90;;;;;;5098987;28;21185;-78
2023/03/26 00:44:00;;;;;;;0.87;0.33;;;8.10;99.90;;;;;;5107151;28;20462;-78
2023/03/26 00:46:29;;;;;;;0.60;0.40;;;8.10;99.90;;;;;;5100100;28;20450;-77
2023/03/26 00:48:57;;;;;;;0.90;0.40;;;8.10;99.90;;;;;;5107736;28;20434;-80
2023/03/26 00:51:24;;;;;;;0.57;0.40;;;8.20;99.90;;;;;;5100098;28;20464;-82
2023/03/26 00:53:51;;;;;;;0.77;0.40;;;8.20;99.90;;;;;;5091249;28;20474;-80
2023/03/26 00:56:19;;;;;;;0.70;0.37;;;8.20;99.90;;;;;;5095554;28;20459;-78
2023/03/26 00:58:48;;;;;;;0.70;0.30;;;8.10;99.90;;;;;;5097632;28;20523;-82
2023/03/26 01:01:20;;;;;;;0.40;0.30;;;8.10;99.90;;;;;;5113829;27;20466;-78
2023/03/26 01:03:47;;;;;;;0.50;0.30;;;8.10;99.90;;;;;;5104753;28;20461;-79
2023/03/26 01:06:26;;;;;;;2.50;0.30;;;8.10;99.90;;;;;;5099095;28;20504;-79
2023/03/26 01:08:58;;;;;;;0.60;0.40;;;8.10;99.90;;;;;;5100634;28;20484;-78
2023/03/26 01:11:29;;;;;;;0.80;0.30;;;8.10;99.90;;;;;;5105525;28;20466;-79
2023/03/26 01:13:59;;;;;;;0.60;0.47;;;8.20;99.90;;;;;;5107323;28;20447;-76
2023/03/26 01:16:33;;;;;;;0.70;0.30;;;8.20;99.90;;;;;;5106876;28;20495;-77
2023/03/26 01:19:00;;;;;;;0.40;0.40;;;8.30;99.90;;;;;;5105478;28;20539;-81
2023/03/26 01:21:29;;;;;;;0.60;0.40;;;8.30;99.90;;;;;;5107111;28;20515;-78
2023/03/26 01:24:00;;;;;;;0.97;0.30;;;8.30;99.90;;;;;;5094950;28;20541;-76
2023/03/26 01:26:58;;;;;;;0.47;0.30;;;8.30;99.90;;;;;;5102312;28;20474;-82
2023/03/26 01:29:32;;;;;;;0.73;0.40;;;8.40;99.90;;;;;;5104891;28;20515;-77
2023/03/26 01:32:09;;;;;;;1.10;0.70;;;8.40;99.90;;;;;;5103969;28;20462;-77
2023/03/26 01:34:48;;;;;;;0.70;0.30;;;8.30;99.90;;;;;;5096212;28;20549;-78
2023/03/26 01:37:23;;;;;;;0.57;0.40;;;8.30;99.90;;;;;;5104242;28;20447;-77
2023/03/26 01:39:57;;;;;;;0.60;0.30;;;8.30;99.90;;;;;;5100068;28;20486;-78
2023/03/26 01:42:34;;;;;;;1.73;0.40;;;8.30;99.90;;;;;;5104262;28;20479;-80
2023/03/26 01:45:09;;;;;;;0.63;0.30;;;8.20;99.90;;;;;;5107142;28;20473;-77
2023/03/26 01:47:42;;;;;;;2.53;0.30;;;8.10;99.90;;;;;;5106591;28;20450;-77
2023/03/26 01:50:09;;;;;;;0.70;0.30;;;8.10;99.90;;;;;;5106592;28;20501;-77
2023/03/26 01:52:37;;;;;;;0.60;0.40;;;8.00;99.90;;;;;;5106353;28;20464;-77
2023/03/26 01:55:10;;;;;;;0.83;0.30;;;8.10;99.90;;;;;;5099768;28;20480;-80
2023/03/26 01:57:49;;;;;;;1.17;0.40;;;8.00;99.90;;;;;;5100316;28;20446;-76
2023/03/26 02:00:23;;;;;;;1.83;0.40;;;8.10;99.90;;;;;;5104472;28;20490;-78
2023/03/26 02:03:04;;;;;;;2.53;0.30;;;8.10;99.90;;;;;;5094022;28;20479;-77
2023/03/26 02:05:34;;;;;;;2.20;0.40;;;8.10;99.90;;;;;;5107575;28;20446;-80
2023/03/26 02:08:10;;;;;;;0.53;0.30;;;8.10;99.90;;;;;;5101412;28;20949;-77
2023/03/26 02:10:42;;;;;;;0.90;0.40;;;8.10;99.90;;;;;;5104900;28;20545;-77
2023/03/26 02:13:10;;;;;;;2.20;0.40;;;8.10;99.90;;;;;;5103169;28;20438;-80
2023/03/26 02:15:38;;;;;;;1.87;0.40;;;8.00;99.90;;;;;;5100968;28;20455;-79
2023/03/26 02:18:05;;;;;;;0.40;0.20;;;8.00;99.90;;;;;;5094612;28;20947;-76
2023/03/26 02:20:32;;;;;;;1.73;0.30;;;8.00;99.90;;;;;;5104625;28;20490;-80
2023/03/26 02:22:59;;;;;;;0.90;0.30;;;8.00;99.90;;;;;;5104839;28;20547;-80
2023/03/26 02:25:26;;;;;;;1.60;0.30;;;8.00;99.90;;;;;;5102886;28;20458;-77
2023/03/26 02:27:55;;;;;;;0.40;0.30;;;8.00;99.90;;;;;;5100643;28;20479;-77
2023/03/26 02:30:25;;;;;;;0.80;0.50;;;8.10;99.90;;;;;;5105364;28;20466;-77
2023/03/26 02:32:53;;;;;;;0.60;0.33;;;8.20;99.90;;;;;;5100495;28;20613;-81
2023/03/26 02:35:21;;;;;;;2.03;0.40;;;8.20;99.90;;;;;;5104466;28;20474;-77
2023/03/26 02:37:49;;;;;;;0.63;0.60;;;8.20;99.90;;;;;;5102693;28;20537;-80
2023/03/26 02:40:17;;;;;;;0.60;0.40;;;8.20;99.90;;;;;;5105222;28;20491;-77
2023/03/26 02:42:46;;;;;;;0.60;0.40;;;8.30;99.90;;;;;;5104536;28;21124;-80
2023/03/26 02:45:15;;;;;;;0.57;0.40;;;8.20;99.90;;;;;;5100815;28;20442;-77
2023/03/26 02:47:44;;;;;;;0.83;0.40;;;8.20;99.90;;;;;;5100886;28;20451;-81
2023/03/26 02:50:11;;;;;;;2.40;0.60;;;8.20;99.90;;;;;;5103700;28;20804;-78
2023/03/26 02:52:39;;;;;;;3.20;0.87;;;8.30;99.90;;;;;;5105330;28;20507;-79
2023/03/26 02:55:06;;;;;;;1.57;0.40;;;8.30;99.90;;;;;;5096933;28;20512;-80
2023/03/26 02:57:33;;;;;;;0.60;0.30;;;8.20;99.90;;;;;;5100809;28;20964;-76
2023/03/26 03:00:01;;;;;;;0.60;0.40;;;8.20;99.90;;;;;;5098852;28;20478;-79
2023/03/26 03:02:29;;;;;;;0.50;0.30;;;8.10;99.90;;;;;;5102878;28;20484;-79
2023/03/26 03:05:00;;;;;;;0.70;0.30;;;8.20;99.90;;;;;;5097431;28;20438;-77
2023/03/26 03:07:27;;;;;;;0.47;0.40;;;8.20;99.90;;;;;;5104985;28;20457;-77
2023/03/26 03:09:54;;;;;;;0.83;0.40;;;8.20;99.90;;;;;;5097531;28;20454;-80
2023/03/26 03:12:21;;;;;;;0.87;0.43;;;8.20;99.90;;;;;;5099563;28;20470;-79
2023/03/26 03:14:48;;;;;;;2.30;0.40;;;8.20;99.90;;;;;;5102511;28;20438;-76
2023/03/26 03:17:15;;;;;;;1.50;0.37;;;8.10;99.90;;;;;;5097519;28;20529;-77
2023/03/26 03:19:44;;;;;;;0.60;0.30;;;8.10;99.90;;;;;;5100655;28;20880;-76
2023/03/26 03:22:11;;;;;;;3.50;0.40;;;8.10;99.90;;;;;;5096472;28;20508;-79
2023/03/26 03:24:38;;;;;;;4.00;0.53;;;8.00;99.90;;;;;;5101876;28;20507;-76
2023/03/26 03:27:05;;;;;;;0.80;0.30;;;7.90;99.90;;;;;;5099586;28;20574;-76
2023/03/26 03:29:32;;;;;;;0.60;0.30;;;8.00;99.90;;;;;;5095749;28;20455;-76
2023/03/26 03:32:00;;;;;;;0.80;0.50;;;8.00;99.90;;;;;;5098207;28;20534;-77
2023/03/26 03:34:27;;;;;;;0.50;0.20;;;8.00;99.90;;;;;;5103253;28;20449;-77
2023/03/26 03:36:55;;;;;;;6.20;0.63;;;8.00;99.90;;;;;;5103602;28;20450;-80
2023/03/26 03:39:22;;;;;;;3.53;0.43;;;8.00;99.90;;;;;;5103877;28;21154;-77
2023/03/26 03:41:49;;;;;;;0.63;0.30;;;8.00;99.90;;;;;;5103195;28;20508;-79
2023/03/26 03:44:16;;;;;;;0.60;0.30;;;8.00;99.90;;;;;;5105045;28;20454;-77
2023/03/26 03:46:43;;;;;;;5.13;0.40;;;8.00;99.90;;;;;;5105223;28;20490;-80
2023/03/26 03:49:10;;;;;;;2.60;0.40;;;8.00;99.90;;;;;;5101904;28;20458;-77
2023/03/26 03:51:37;;;;;;;0.67;0.30;;;8.00;99.90;;;;;;5103198;28;20438;-77
2023/03/26 03:54:07;;;;;;;1.73;0.40;;;8.00;99.90;;;;;;5101971;28;20874;-77
2023/03/26 03:56:34;;;;;;;1.60;0.30;;;8.00;99.90;;;;;;5098568;28;20779;-78
2023/03/26 03:59:01;;;;;;;1.90;0.57;;;7.90;99.90;;;;;;5108560;28;20477;-76
2023/03/26 04:01:29;;;;;;;1.90;0.30;;;7.70;99.90;;;;;;5104203;28;20549;-77
2023/03/26 04:03:56;;;;;;;0.60;0.40;;;7.60;99.90;;;;;;5101615;28;20833;-77
2023/03/26 04:06:24;;;;;;;1.53;0.50;;;7.60;99.90;;;;;;5106925;28;20515;-77
2023/03/26 04:08:51;;;;;;;1.00;0.50;;;7.60;99.90;;;;;;5101956;28;20913;-76
2023/03/26 04:11:19;;;;;;;1.53;0.57;;;7.70;99.90;;;;;;5102291;28;20459;-80
2023/03/26 04:13:46;;;;;;;2.93;0.50;;;7.80;99.90;;;;;;5107825;28;20567;-77
2023/03/26 04:16:13;;;;;;;0.70;0.50;;;7.80;99.90;;;;;;5106387;28;20529;-77
2023/03/26 04:18:40;;;;;;;1.70;0.33;;;7.80;99.90;;;;;;5100740;28;20751;-78
2023/03/26 04:21:07;;;;;;;1.40;0.30;;;7.80;99.90;;;;;;5099438;28;20483;-80
2023/03/26 04:23:35;;;;;;;0.87;0.30;;;7.70;99.90;;;;;;5102990;28;20454;-77
2023/03/26 04:26:05;;;;;;;1.97;0.43;;;7.50;99.90;;;;;;5106874;28;21049;-80
2023/03/26 04:28:40;;;;;;;2.40;0.40;;;7.50;99.90;;;;;;5101128;28;20942;-77
2023/03/26 04:31:12;;;;;;;0.80;0.40;;;7.30;99.90;;;;;;5100679;28;20537;-79
2023/03/26 04:33:39;;;;;;;1.13;0.40;;;7.30;99.90;;;;;;5103381;28;20450;-77
2023/03/26 04:36:07;;;;;;;0.60;0.30;;;7.20;99.90;;;;;;5102893;28;20531;-80
2023/03/26 04:38:40;;;;;;;1.07;0.40;;;7.30;99.90;;;;;;5098996;28;20447;-78
2023/03/26 04:41:07;;;;;;;1.83;0.40;;;7.40;99.90;;;;;;5094534;28;20511;-77
2023/03/26 04:43:35;;;;;;;1.90;0.40;;;7.50;99.90;;;;;;5099581;28;20473;-77
2023/03/26 04:46:03;;;;;;;1.27;0.43;;;7.60;99.90;;;;;;5101314;28;20496;-80
2023/03/26 04:48:30;;;;;;;3.43;0.40;;;7.70;99.90;;;;;;5100693;28;20710;-77
2023/03/26 04:50:58;;;;;;;3.43;0.53;;;7.80;99.90;;;;;;5097037;28;20458;-76
2023/03/26 04:53:25;;;;;;;3.13;0.40;;;7.90;99.90;;;;;;5100048;28;21007;-73
2023/03/26 04:55:57;;;;;;;0.70;0.50;;;8.00;99.90;;;;;;5105690;28;20466;-79
2023/03/26 04:58:29;;;;;;;3.63;0.57;;;7.90;99.90;;;;;;5098467;28;20463;-76
2023/03/26 05:01:00;;;;;;;1.20;0.30;;;7.90;99.90;;;;;;5100589;28;20490;-76
2023/03/26 05:03:30;;;;;;;0.50;0.40;;;7.80;99.90;;;;;;5099911;28;20450;-76
2023/03/26 05:05:57;;;;;;;0.57;0.50;;;7.70;99.90;;;;;;5103799;28;21010;-78
2023/03/26 05:08:24;;;;;;;2.10;0.50;;;7.60;99.90;;;;;;5100563;28;20462;-74
2023/03/26 05:10:51;;;;;;;3.90;0.80;;;7.60;99.90;;;;;;5098989;28;20534;-78
2023/03/26 05:13:18;;;;;;;1.57;0.40;;;7.50;99.90;;;;;;5094608;28;20491;-75
2023/03/26 05:15:45;;;;;;;3.00;0.73;;;7.60;99.90;;;;;;5104402;28;20519;-75
2023/03/26 05:18:13;;;;;;;2.10;0.40;;;7.50;99.90;;;;;;5099378;28;20459;-75
2023/03/26 05:20:41;;;;;;;1.37;0.60;;;7.60;99.90;;;;;;5097575;28;20978;-76
2023/03/26 05:23:08;;;;;;;2.17;0.50;;;7.50;99.90;;;;;;5102550;28;20446;-76
2023/03/26 05:25:35;;;;;;;0.87;0.40;;;7.40;99.90;;;;;;5103818;28;20969;-76
2023/03/26 05:28:02;;;;;;;1.43;0.50;;;7.40;99.90;;;;;;5102721;28;20853;-79
2023/03/26 05:30:29;;;;;;;0.60;0.50;;;7.30;99.90;;;;;;5102469;28;20474;-76
2023/03/26 05:32:56;;;;;;;6.10;0.60;;;7.30;99.90;;;;;;5097346;28;20451;-79
2023/03/26 05:35:26;;;;;;;0.87;0.50;;;7.20;99.90;;;;;;5093000;28;20837;-78
2023/03/26 05:37:53;;;;;;;1.30;0.50;;;7.30;99.90;;;;;;5093987;28;20447;-76
2023/03/26 05:40:20;;;;;;;2.50;0.50;;;7.20;99.90;;;;;;5096795;28;20464;-76
2023/03/26 05:42:47;;;;;;;0.73;0.50;;;7.30;99.90;;;;;;5104598;28;20515;-78
2023/03/26 05:45:15;;;;;;;1.53;0.50;;;7.20;99.90;;;;;;5097118;28;20446;-77
2023/03/26 05:47:42;;;;;;;4.00;0.70;;;7.20;99.90;;;;;;5098962;28;20940;-76
2023/03/26 05:50:11;;;;;;;1.80;0.60;;;7.20;99.90;;;;;;5105418;28;20458;-76
2023/03/26 05:52:39;;;;;;;3.23;1.43;;;7.30;99.90;;;;;;5103227;28;20462;-76
2023/03/26 05:55:07;;;;;;;1.83;0.47;;;7.40;99.90;;;;;;5105929;28;20462;-76
2023/03/26 05:57:35;;;;;;;1.90;0.90;;;7.60;99.90;;;;;;5105725;28;20445;-76
2023/03/26 06:00:03;;;;;;;0.60;0.60;;;7.90;99.90;;;;;;5101556;28;20531;-76
2023/03/26 06:02:30;;;;;;;5.47;0.50;;;8.10;99.90;;;;;;5101174;28;20486;-80
2023/03/26 06:04:57;;;;;;;2.70;0.40;;;8.20;99.90;;;;;;5104502;28;20438;-76
2023/03/26 06:07:25;;;;;;;1.63;0.47;;;8.40;99.90;;;;;;5099325;28;21012;-76
2023/03/26 06:09:54;;;;;;;0.80;0.30;;;8.50;99.90;;;;;;5093083;28;20808;-76
2023/03/26 06:12:21;;;;;;;0.87;0.47;;;8.60;99.90;;;;;;5101852;28;20525;-80
2023/03/26 06:14:48;;;;;;;2.60;0.40;;;8.60;99.90;;;;;;5105089;28;20499;-78
2023/03/26 06:17:15;;;;;;;3.20;0.70;;;8.60;99.90;;;;;;5099737;28;20467;-77
2023/03/26 06:19:42;;;;;;;1.10;0.50;;;8.70;99.90;;;;;;5097872;28;20501;-78
2023/03/26 06:22:09;;;;;;;2.40;0.73;;;8.70;99.90;;;;;;5098431;28;20474;-80
2023/03/26 06:24:36;;;;;;;0.97;0.40;;;8.80;99.90;;;;;;5106827;28;20509;-78
2023/03/26 06:27:05;;;;;;;0.60;0.40;;;8.80;99.90;;;;;;5103269;28;20543;-78
2023/03/26 06:29:32;;;;;;;2.30;0.70;;;9.00;99.90;;;;;;5104509;28;20465;-80
2023/03/26 06:32:00;;;;;;;1.10;0.57;;;9.00;99.90;;;;;;5097600;28;20471;-78
2023/03/26 06:34:27;;;;;;;0.70;0.43;;;9.10;99.90;;;;;;5097726;28;20450;-78
2023/03/26 06:36:54;;;;;;;1.63;0.40;;;9.10;99.90;;;;;;5097924;28;20534;-80
2023/03/26 06:39:21;;;;;;;0.60;0.40;;;9.20;99.90;;;;;;5095164;28;20464;-79
2023/03/26 06:41:48;;;;;;;1.50;0.67;;;9.40;99.90;;;;;;5101169;28;20505;-77
2023/03/26 06:44:16;;;;;;;1.20;0.70;;;9.50;99.90;;;;;;5099934;28;20922;-81
2023/03/26 06:46:43;;;;;;;3.23;0.40;;;9.70;99.90;;;;;;5094690;28;20468;-77
2023/03/26 06:49:10;;;;;;;0.50;0.40;;;9.80;99.90;;;;;;5100191;28;20507;-77
2023/03/26 06:51:39;;;;;;;3.70;0.60;;;9.80;99.90;;;;;;5096083;28;20966;-78
2023/03/26 06:54:06;;;;;;;1.93;0.43;;;10.00;99.90;;;;;;5099779;28;20461;-75
2023/03/26 06:56:33;;;;;;;2.17;0.40;;;10.10;99.90;;;;;;5098306;28;20524;-74
2023/03/26 06:59:00;;;;;;;1.47;0.70;;;10.10;99.90;;;;;;5094270;28;20878;-75
2023/03/26 07:01:28;;;;;;;4.87;0.50;;;10.20;99.90;;;;;;5098215;28;21035;-78
2023/03/26 07:03:55;;;;;;;0.90;0.50;;;10.20;99.90;;;;;;5101012;28;20467;-74
2023/03/26 07:06:22;;;;;;;2.13;0.57;;;10.30;99.90;;;;;;5095230;28;20540;-74
2023/03/26 07:08:49;;;;;;;1.10;0.50;;;10.40;99.90;;;;;;5104710;28;20527;-78
2023/03/26 07:11:18;;;;;;;1.60;0.40;;;10.40;99.90;;;;;;5104351;28;20516;-74
2023/03/26 07:13:46;;;;;;;2.00;0.50;;;10.50;99.90;;;;;;5098910;28;20471;-75
2023/03/26 07:16:14;;;;;;;1.13;0.73;;;10.50;99.90;;;;;;5101606;28;20497;-74
2023/03/26 07:18:42;;;;;;;1.20;0.40;;;10.50;99.90;;;;;;5110817;27;20485;-77
2023/03/26 07:21:11;;;;;;;0.90;0.40;;;10.40;99.90;;;;;;5100215;28;20982;-77
2023/03/26 07:23:38;;;;;;;1.23;0.40;;;10.60;99.90;;;;;;5095706;28;21254;-74
2023/03/26 07:26:18;;;;;;;1.93;0.60;;;10.60;99.90;;;;;;5102844;28;20534;-74
2023/03/26 07:28:50;;;;;;;3.07;0.70;;;10.60;99.90;;;;;;5106522;28;20461;-76
2023/03/26 07:31:26;;;;;;;4.23;0.40;;;10.70;99.90;;;;;;5099048;28;20463;-78
2023/03/26 07:34:02;;;;;;;2.00;0.50;;;10.80;99.90;;;;;;5099094;28;20488;-85
2023/03/26 07:36:35;;;;;;;3.40;0.57;;;10.90;99.90;;;;;;5097225;28;20466;-81
2023/03/26 07:39:12;;;;;;;3.60;0.60;;;11.10;99.90;;;;;;5100545;28;20494;-77
2023/03/26 07:41:45;;;;;;;0.80;0.50;;;11.20;99.90;;;;;;5106138;28;20517;-76
2023/03/26 07:44:41;;;;;;;2.70;0.40;;;11.10;99.90;;;;;;5107962;28;20458;-74
2023/03/26 07:47:18;;;;;;;2.30;0.70;;;11.20;99.90;;;;;;5106470;28;21350;-75
2023/03/26 07:49:48;;;;;;;1.17;0.57;;;11.20;99.90;;;;;;5104950;28;20461;-74
2023/03/26 07:52:15;;;;;;;1.50;0.60;;;11.40;99.90;;;;;;5105979;28;20458;-74
2023/03/26 07:54:42;;;;;;;1.77;0.60;;;11.60;99.90;;;;;;5101311;28;20466;-74
2023/03/26 07:57:16;;;;;;;0.60;0.40;;;11.70;99.90;;;;;;5106704;28;20849;-74
2023/03/26 07:59:51;;;;;;;0.60;0.40;;;11.70;99.90;;;;;;5102526;28;20857;-74
2023/03/26 08:02:40;;;;;;;1.87;0.83;;;11.80;99.90;;;;;;5098241;28;20504;-74
2023/03/26 08:05:18;;;;;;;3.40;0.50;;;12.00;99.90;;;;;;5100329;28;21030;-75
2023/03/26 08:07:56;;;;;;;1.30;0.43;;;12.00;99.20;;;;;;5100251;28;20779;-74
2023/03/26 08:10:27;;;;;;;1.27;0.40;;;12.20;99.10;;;;;;5108608;28;20458;-74
2023/03/26 08:13:03;;;;;;;0.90;0.50;;;12.20;99.90;;;;;;5105103;28;20513;-74
2023/03/26 08:15:36;;;;;;;1.23;0.57;;;12.10;98.80;;;;;;5101049;28;20950;-74
2023/03/26 08:18:11;;;;;;;3.07;0.63;;;11.90;97.10;;;;;;5101519;28;20546;-74
2023/03/26 08:20:46;;;;;;;4.43;0.67;;;11.90;98.60;;;;;;5092117;28;21023;-73
2023/03/26 08:23:24;;;;;;;0.77;0.30;;;12.20;98.80;;;;;;5104443;28;20491;-76
2023/03/26 08:26:01;;;;;;;1.17;0.40;;;12.40;98.20;;;;;;5102074;28;21022;-76
2023/03/26 08:28:39;;;;;;;1.40;0.40;;;12.40;94.40;;;;;;5096934;28;20459;-79
2023/03/26 08:31:09;;;;;;;1.03;0.50;;;12.30;96.00;;;;;;5096465;28;20471;-74
2023/03/26 08:33:39;;;;;;;2.87;0.40;;;12.10;95.10;;;;;;5101342;28;20462;-77
2023/03/26 08:36:09;;;;;;;3.23;0.40;;;12.10;95.70;;;;;;5100768;28;20500;-77
2023/03/26 08:38:36;;;;;;;1.50;1.10;;;12.10;95.30;;;;;;5105031;28;20474;-76
2023/03/26 08:41:44;;;;;;;2.90;2.30;;;12.30;95.30;;;;;;5104446;28;21072;-77
2023/03/26 08:45:00;;;;;;;0.70;0.70;;;12.80;94.20;;;;;;5106454;28;20443;-77
2023/03/26 08:48:07;;;;;;;17.37;10.77;;;13.30;96.20;;;;;;5102272;28;20444;-77
2023/03/26 08:50:53;;;;;;;17.27;15.47;;;13.40;92.90;;;;;;5090800;27;20459;-80
2023/03/26 08:53:56;;;;;;;2.30;0.60;;;13.50;91.70;;;;;;5098172;28;20884;-78
2023/03/26 08:56:31;;;;;;;3.90;2.80;;;13.30;90.40;;;;;;5104814;27;20454;-77
2023/03/26 08:59:43;;;;;;;2.20;1.70;;;13.30;92.00;;;;;;5106007;28;20454;-77
2023/03/26 09:03:13;;;;;;;4.43;3.50;;;13.30;88.50;;;;;;5101877;28;20908;-77
2023/03/26 09:06:08;;;;;;;12.27;10.83;;;13.70;91.10;;;;;;5039666;28;21071;-79
2023/03/26 09:09:03;;;;;;;16.57;14.07;;;13.60;85.50;;;;;;5097563;28;20855;-77
2023/03/26 09:12:16;;;;;;;7.77;5.33;;;13.60;87.20;;;;;;5102770;27;20476;-78
2023/03/26 09:15:19;;;;;;;0.60;0.60;;;13.80;85.80;;;;;;5103556;28;20777;-77
2023/03/26 09:18:14;;;;;;;5.50;4.93;;;13.60;83.70;;;;;;5099863;27;20489;-80
2023/03/26 09:21:11;;;;;;;5.67;5.17;;;13.40;83.20;;;;;;5104879;28;21014;-80
2023/03/26 09:24:16;;;;;;;0.80;0.40;;;13.50;81.50;;;;;;5091854;28;20865;-77
2023/03/26 09:26:56;;;;;;;1.00;0.43;;;13.60;83.80;;;;;;5096708;28;20482;-77
2023/03/26 09:30:09;;;;;;;1.10;1.00;;;13.90;87.40;;;;;;5100072;28;20473;-79
2023/03/26 09:33:00;;;;;;;0.90;0.30;;;14.30;84.20;;;;;;5097076;28;20454;-78
2023/03/26 09:35:52;;;;;;;1.27;0.43;;;14.20;80.90;;;;;;5098436;28;20480;-77
2023/03/26 09:38:41;;;;;;;0.50;0.40;;;14.30;82.70;;;;;;5101641;28;20535;-79
2023/03/26 09:41:17;;;;;;;2.93;0.50;;;14.50;83.50;;;;;;5099134;28;20848;-78
2023/03/26 09:44:29;;;;;;;2.43;0.60;;;14.80;82.70;;;;;;5102252;28;20852;-80
2023/03/26 09:47:21;;;;;;;0.90;0.30;;;14.80;79.80;;;;;;5100201;28;20474;-78
2023/03/26 09:49:57;;;;;;;1.33;0.33;;;14.80;82.00;;;;;;5100856;28;20463;-77
2023/03/26 09:52:49;;;;;;;0.40;0.30;;;14.80;73.10;;;;;;5101071;28;20470;-77
2023/03/26 09:55:47;;;;;;;2.10;0.70;;;14.80;73.50;;;;;;5102759;28;21000;-76
2023/03/26 09:58:39;;;;;;;1.30;0.70;;;14.80;76.30;;;;;;5106762;28;20458;-75
2023/03/26 10:01:11;;;;;;;3.30;0.40;;;15.10;71.70;;;;;;5127955;27;20494;-77
2023/03/26 10:03:54;;;;;;;0.90;0.43;;;15.30;71.70;;;;;;5118932;27;20543;-77
2023/03/26 10:06:46;;;;;;;1.20;0.63;;;15.40;70.80;;;;;;5105451;28;20546;-78
2023/03/26 10:09:27;;;;;;;1.17;0.70;;;15.40;68.60;;;;;;5094044;28;20451;-79
2023/03/26 10:12:11;;;;;;;1.00;0.30;;;15.40;71.20;;;;;;5091719;28;20989;-80
2023/03/26 10:14:43;;;;;;;0.77;0.53;;;14.80;68.80;;;;;;5095075;28;20478;-77
2023/03/26 10:17:27;;;;;;;3.53;1.33;;;14.70;70.80;;;;;;5103300;28;20454;-76
2023/03/26 10:20:19;;;;;;;0.83;0.70;;;15.00;69.30;;;;;;5104825;28;20465;-77
2023/03/26 10:23:05;;;;;;;0.70;0.40;;;15.10;69.90;;;;;;5099597;28;21107;-76
2023/03/26 10:25:45;;;;;;;0.40;0.30;;;14.70;69.30;;;;;;5096017;28;20458;-76
2023/03/26 10:28:36;;;;;;;0.70;0.60;;;14.80;67.40;;;;;;5102209;28;20541;-79
2023/03/26 10:31:26;;;;;;;2.43;0.50;;;15.00;74.00;;;;;;5100086;28;20525;-80
2023/03/26 10:34:05;;;;;;;2.20;0.87;;;14.70;66.80;;;;;;5100747;28;20466;-79
2023/03/26 10:36:35;;;;;;;0.60;0.40;;;14.70;71.30;;;;;;5097260;28;20942;-80
2023/03/26 10:39:38;;;;;;;1.03;0.40;;;14.50;68.00;;;;;;5102234;28;21142;-80
2023/03/26 10:42:21;;;;;;;0.70;0.50;;;14.90;66.90;;;;;;5060943;28;20509;-77
2023/03/26 10:45:13;;;;;;;1.70;0.40;;;15.10;65.90;;;;;;5104599;28;20898;-77
2023/03/26 10:48:25;;;;;;;1.00;0.33;;;15.30;65.10;;;;;;5100364;28;20462;-77
2023/03/26 10:51:05;;;;;;;0.40;0.30;;;15.30;65.70;;;;;;5075301;28;20474;-79
2023/03/26 10:53:38;;;;;;;1.00;0.40;;;14.70;65.50;;;;;;5102671;28;20522;-78
2023/03/26 10:56:16;;;;;;;1.43;0.50;;;14.50;65.30;;;;;;5099868;28;21007;-77
2023/03/26 10:58:43;;;;;;;1.10;0.40;;;14.40;66.00;;;;;;5109194;28;20819;-77
2023/03/26 11:01:15;;;;;;;0.60;0.40;;;14.30;67.00;;;;;;5106251;28;20442;-79
2023/03/26 11:03:51;;;;;;;0.73;0.40;;;14.40;63.90;;;;;;5107679;28;20478;-79
2023/03/26 11:06:32;;;;;;;0.70;0.40;;;14.50;63.70;;;;;;5103964;28;21060;-77
2023/03/26 11:09:08;;;;;;;1.37;0.50;;;14.60;65.70;;;;;;5104799;28;20466;-77
2023/03/26 11:11:45;;;;;;;0.47;0.43;;;14.70;65.50;;;;;;5105031;28;21071;-77
2023/03/26 11:14:20;;;;;;;1.07;0.40;;;14.90;65.20;;;;;;5098728;28;21157;-76
2023/03/26 11:16:56;;;;;;;0.73;0.40;;;15.20;60.40;;;;;;5104990;28;20578;-79
2023/03/26 11:19:31;;;;;;;1.27;0.30;;;14.90;61.30;;;;;;5103422;28;20467;-77
2023/03/26 11:22:03;;;;;;;0.60;0.50;;;14.80;68.40;;;;;;5102364;28;20517;-77
2023/03/26 11:25:05;;;;;;;1.77;1.53;;;14.70;69.90;;;;;;5095842;28;21901;-79
2023/03/26 11:27:48;;;;;;;0.60;0.40;;;14.90;68.60;;;;;;5104897;28;20874;-77
2023/03/26 11:30:27;;;;;;;0.93;0.40;;;14.90;65.80;;;;;;5106536;28;20462;-78
2023/03/26 11:32:57;;;;;;;1.80;0.43;;;14.50;63.40;;;;;;5103817;28;20487;-77
2023/03/26 11:35:28;;;;;;;1.53;0.40;;;14.60;66.20;;;;;;5103940;28;20490;-77
2023/03/26 11:37:58;;;;;;;1.73;0.50;;;14.40;67.10;;;;;;5098588;28;20909;-77
2023/03/26 11:40:31;;;;;;;0.50;0.30;;;14.20;69.30;;;;;;5102528;28;20869;-76
2023/03/26 11:43:02;;;;;;;1.13;0.50;;;14.40;68.90;;;;;;5104465;28;20490;-76
2023/03/26 11:45:32;;;;;;;1.30;0.43;;;14.60;68.60;;;;;;5104364;28;20836;-79
2023/03/26 11:48:08;;;;;;;3.83;0.70;;;14.60;70.50;;;;;;5105604;28;20512;-78
2023/03/26 11:50:39;;;;;;;2.20;0.37;;;14.50;64.80;;;;;;5108491;28;20490;-75
2023/03/26 11:53:13;;;;;;;0.80;0.30;;;14.30;65.50;;;;;;5104370;28;20541;-76
2023/03/26 11:55:44;;;;;;;1.30;0.40;;;14.30;65.20;;;;;;5100350;28;21024;-79
2023/03/26 11:58:28;;;;;;;0.70;0.33;;;14.30;70.30;;;;;;5100631;28;20469;-75
2023/03/26 12:00:56;;;;;;;0.80;0.40;;;14.10;68.60;;;;;;5102547;28;20508;-76
2023/03/26 12:03:23;;;;;;;2.33;0.40;;;13.90;72.90;;;;;;5099269;28;20483;-79
2023/03/26 12:05:53;;;;;;;0.93;0.50;;;13.70;76.50;;;;;;5101164;28;20528;-76
2023/03/26 12:08:22;;;;;;;1.27;0.47;;;13.70;79.40;;;;;;5102707;28;20457;-76
2023/03/26 12:10:58;;;;;;;0.50;0.40;;;13.40;77.20;;;;;;5103529;28;20531;-76
2023/03/26 12:13:35;;;;;;;1.07;0.40;;;13.20;84.50;;;;;;5100561;28;20467;-77
2023/03/26 12:16:09;;;;;;;1.57;0.50;;;13.10;83.00;;;;;;5110209;28;20476;-77
2023/03/26 12:18:38;;;;;;;2.40;0.40;;;13.00;80.60;;;;;;5109173;28;20431;-76
2023/03/26 12:21:08;;;;;;;1.63;0.40;;;13.10;81.40;;;;;;5103052;28;20456;-76
2023/03/26 12:23:52;;;;;;;0.40;0.30;;;13.10;80.10;;;;;;5105200;28;21382;-74
2023/03/26 12:26:29;;;;;;;0.80;0.40;;;13.00;80.00;;;;;;5096923;28;20492;-73
2023/03/26 12:29:04;;;;;;;2.00;0.40;;;13.20;82.20;;;;;;5102430;28;21010;-75
2023/03/26 12:31:41;;;;;;;1.30;0.50;;;13.20;72.60;;;;;;5104216;28;20526;-77
2023/03/26 12:34:16;;;;;;;1.03;0.50;;;13.30;77.20;;;;;;5100377;28;20458;-77
2023/03/26 12:36:50;;;;;;;2.63;0.50;;;13.40;79.90;;;;;;5098798;28;20962;-77
2023/03/26 12:39:29;;;;;;;1.83;0.40;;;13.40;79.90;;;;;;5105198;28;20451;-77
2023/03/26 12:41:58;;;;;;;0.73;0.40;;;13.40;78.60;;;;;;5102782;28;20945;-78
2023/03/26 12:44:30;;;;;;;2.50;0.40;;;13.30;80.60;;;;;;5105651;28;20543;-76
2023/03/26 12:47:14;;;;;;;2.50;0.40;;;13.10;78.50;;;;;;5104152;28;20477;-78
2023/03/26 12:49:42;;;;;;;5.00;0.50;;;12.90;77.90;;;;;;5102168;28;20479;-76
2023/03/26 12:52:29;;;;;;;3.30;0.70;;;12.80;83.00;;;;;;5104292;28;20455;-79
2023/03/26 12:55:03;;;;;;;1.47;0.50;;;12.80;83.70;;;;;;5107632;28;20503;-76
2023/03/26 12:57:37;;;;;;;2.30;0.43;;;12.90;83.10;;;;;;5106354;28;20466;-77
2023/03/26 13:00:38;;;;;;;0.70;0.40;;;12.90;83.50;;;;;;5104878;28;20453;-79
2023/03/26 13:03:20;;;;;;;2.27;0.60;;;12.80;87.40;;;;;;5059413;28;20482;-79
2023/03/26 13:06:03;;;;;;;1.93;0.50;;;12.80;86.60;;;;;;5107184;28;20462;-77
2023/03/26 13:08:56;;;;;;;1.27;0.40;;;12.90;86.50;;;;;;5094517;28;20466;-76
2023/03/26 13:11:33;;;;;;;1.40;0.30;;;12.70;84.80;;;;;;5100371;28;21290;-79
2023/03/26 13:14:26;;;;;;;2.23;0.40;;;12.60;86.80;;;;;;5097329;28;20463;-78
2023/03/26 13:16:58;;;;;;;1.67;0.60;;;12.70;87.80;;;;;;5105009;28;20475;-78
2023/03/26 13:19:33;;;;;;;4.23;0.50;;;12.60;88.40;;;;;;5106095;28;20447;-77
2023/03/26 13:22:16;;;;;;;0.80;0.50;;;12.50;88.50;;;;;;5103206;28;20434;-76
2023/03/26 13:24:52;;;;;;;3.70;0.40;;;12.60;87.20;;;;;;5105474;28;20490;-77
2023/03/26 13:27:40;;;;;;;1.73;0.50;;;12.70;87.00;;;;;;5104261;28;20469;-80
2023/03/26 13:30:21;;;;;;;0.60;0.50;;;12.50;85.20;;;;;;5101553;28;20462;-74